Time;durP1;ratioP1;P1;durP2;ratioP2;P2;SDS_P1;SDS_P2;PMS_P1;PMS_P2;Temp;Humidity;BMP_temperature;BMP_pressure;BME280_temperature;BME280_humidity;BME280_pressure;Samples;Min_cycle;Max_cycle;Signal;HPM_P1;HPM_P2
2022/08/21 00:01:54;;;;;;;0.70;0.70;;;16.70;99.90;;;;;;5039302;28;20036;-85
2022/08/21 00:04:21;;;;;;;0.50;0.50;;;16.70;99.90;;;;;;5023331;28;20099;-84
2022/08/21 00:06:47;;;;;;;0.80;0.80;;;16.60;99.90;;;;;;5041257;28;20101;-85
2022/08/21 00:09:12;;;;;;;0.68;0.68;;;16.60;99.90;;;;;;5040628;28;20492;-85
2022/08/21 00:11:39;;;;;;;0.77;0.77;;;16.60;99.90;;;;;;5049082;28;20022;-85
2022/08/21 00:14:07;;;;;;;0.70;0.70;;;16.60;99.90;;;;;;5042897;28;20032;-85
2022/08/21 00:16:33;;;;;;;0.70;0.70;;;16.50;99.90;;;;;;5041206;28;20021;-84
2022/08/21 00:18:59;;;;;;;0.70;0.70;;;16.50;99.90;;;;;;5041079;28;20388;-84
2022/08/21 00:21:25;;;;;;;0.80;0.80;;;16.50;99.90;;;;;;5019025;28;20033;-83
2022/08/21 00:23:51;;;;;;;0.75;0.75;;;16.40;99.90;;;;;;5025045;28;20052;-84
2022/08/21 00:26:16;;;;;;;0.93;0.93;;;16.40;99.90;;;;;;5031351;28;20022;-84
2022/08/21 00:28:42;;;;;;;0.80;0.80;;;16.30;99.90;;;;;;5039219;28;20014;-83
2022/08/21 00:31:09;;;;;;;0.88;0.88;;;16.30;99.90;;;;;;5037460;28;20044;-84
2022/08/21 00:33:35;;;;;;;0.95;0.95;;;16.30;99.90;;;;;;5021383;28;20034;-84
2022/08/21 00:36:01;;;;;;;0.90;0.90;;;16.30;99.90;;;;;;5021963;28;20096;-84
2022/08/21 00:38:26;;;;;;;1.02;1.02;;;16.30;99.90;;;;;;5022142;28;20022;-84
2022/08/21 00:40:56;;;;;;;0.90;0.90;;;16.30;99.90;;;;;;5056000;28;20013;-85
2022/08/21 00:43:27;;;;;;;1.10;1.10;;;16.30;99.90;;;;;;5071596;28;20013;-85
2022/08/21 00:45:54;;;;;;;1.38;1.27;;;16.40;99.90;;;;;;5060604;28;20032;-85
2022/08/21 00:48:20;;;;;;;1.85;0.93;;;16.40;99.90;;;;;;5060821;28;20013;-85
2022/08/21 00:50:55;;;;;;;1.10;1.10;;;16.40;99.90;;;;;;5069528;28;20041;-85
2022/08/21 00:53:21;;;;;;;0.90;0.90;;;16.30;99.90;;;;;;5040659;28;20025;-84
2022/08/21 00:55:47;;;;;;;0.90;0.90;;;16.30;99.90;;;;;;5058291;28;20018;-85
2022/08/21 00:58:14;;;;;;;1.10;1.10;;;16.20;99.90;;;;;;5040346;28;20021;-85
2022/08/21 01:00:42;;;;;;;0.77;0.77;;;16.20;99.90;;;;;;5058236;28;20017;-85
2022/08/21 01:03:13;;;;;;;0.85;0.82;;;16.20;99.90;;;;;;5057799;28;20044;-85
2022/08/21 01:05:40;;;;;;;1.00;1.00;;;16.20;99.90;;;;;;5057537;28;20014;-85
2022/08/21 01:08:07;;;;;;;1.00;1.00;;;16.10;99.90;;;;;;5039387;28;20061;-86
2022/08/21 01:10:34;;;;;;;0.82;0.82;;;16.10;99.90;;;;;;5044000;28;20025;-85
2022/08/21 01:13:01;;;;;;;1.30;1.20;;;16.00;99.90;;;;;;5057509;28;20032;-85
2022/08/21 01:15:31;;;;;;;0.80;0.80;;;16.00;99.90;;;;;;5059511;28;20538;-85
2022/08/21 01:17:57;;;;;;;0.90;0.90;;;16.00;99.90;;;;;;5063015;28;20032;-84
2022/08/21 01:20:23;;;;;;;0.85;0.85;;;15.90;99.90;;;;;;5062074;28;20075;-84
2022/08/21 01:22:49;;;;;;;0.90;0.90;;;15.90;99.90;;;;;;5059694;28;20532;-85
2022/08/21 01:25:19;;;;;;;1.10;1.10;;;15.90;99.90;;;;;;5041884;28;20032;-84
2022/08/21 01:27:45;;;;;;;0.90;0.90;;;15.90;99.90;;;;;;5057297;28;20017;-85
2022/08/21 01:30:19;;;;;;;2.28;1.02;;;15.80;99.90;;;;;;5039428;28;20056;-84
2022/08/21 01:36:08;;;;;;;1.15;1.15;;;15.80;99.90;;;;;;5042609;28;20036;-85
2022/08/21 01:41:41;;;;;;;1.25;1.20;;;15.80;99.90;;;;;;4947587;29;20046;-85
2022/08/21 01:44:57;;;;;;;1.42;1.33;;;15.80;99.90;;;;;;5062848;28;20021;-85
2022/08/21 01:47:42;;;;;;;1.30;1.20;;;15.80;99.90;;;;;;5033599;28;20464;-83
2022/08/21 01:50:10;;;;;;;1.40;1.40;;;15.80;99.90;;;;;;5023033;28;20128;-84
2022/08/21 01:52:36;;;;;;;1.08;1.08;;;15.70;99.90;;;;;;5034107;28;20028;-84
2022/08/21 01:55:05;;;;;;;1.17;1.17;;;15.70;99.90;;;;;;5020441;28;20075;-85
2022/08/21 01:57:32;;;;;;;1.30;1.20;;;15.70;99.90;;;;;;5035764;28;20034;-85
2022/08/21 02:10:32;;;;;;;1.52;1.42;;;15.60;99.90;;;;;;5024381;28;20040;-84
2022/08/21 02:12:59;;;;;;;1.40;1.30;;;15.60;99.90;;;;;;5029973;28;20017;-85
2022/08/21 02:18:59;;;;;;;1.83;1.73;;;15.60;99.90;;;;;;5024475;28;20064;-84
2022/08/21 02:22:08;;;;;;;1.25;1.25;;;15.60;99.90;;;;;;4999277;28;20030;-84
2022/08/21 02:24:34;;;;;;;1.33;1.23;;;15.60;99.90;;;;;;5000706;28;20026;-85
2022/08/21 02:27:08;;;;;;;1.33;1.33;;;15.50;99.90;;;;;;5010135;28;20028;-85
2022/08/21 02:29:45;;;;;;;1.45;1.35;;;15.50;99.90;;;;;;5017237;28;20025;-85
2022/08/21 02:32:17;;;;;;;1.80;1.70;;;15.50;99.90;;;;;;5025224;28;20077;-85
2022/08/21 02:34:42;;;;;;;1.90;1.73;;;15.50;99.90;;;;;;5002393;28;20033;-85
2022/08/21 02:37:08;;;;;;;1.90;1.80;;;15.50;99.90;;;;;;5001461;28;20026;-84
2022/08/21 02:39:34;;;;;;;1.90;1.80;;;15.50;99.90;;;;;;4999064;28;20033;-85
2022/08/21 02:42:02;;;;;;;1.50;1.40;;;15.40;99.90;;;;;;5043829;28;20065;-85
2022/08/21 02:44:27;;;;;;;1.48;1.10;;;15.40;99.90;;;;;;5018978;28;20030;-84
2022/08/21 02:46:53;;;;;;;1.63;1.52;;;15.40;99.90;;;;;;5029543;28;20025;-84
2022/08/21 02:49:18;;;;;;;1.60;1.50;;;15.40;99.90;;;;;;5035688;28;20026;-85
2022/08/21 02:51:44;;;;;;;1.85;1.50;;;15.40;99.90;;;;;;5035530;28;20033;-86
2022/08/21 02:54:10;;;;;;;1.35;1.27;;;15.40;99.90;;;;;;5036197;28;20087;-85
2022/08/21 02:56:36;;;;;;;1.70;1.60;;;15.40;99.90;;;;;;5038761;28;20021;-84
2022/08/21 02:59:40;;;;;;;1.88;1.77;;;15.40;99.90;;;;;;5052157;28;20018;-85
2022/08/21 03:06:21;;;;;;;1.58;1.48;;;15.40;99.90;;;;;;5041402;28;20033;-85
2022/08/21 03:09:30;;;;;;;1.45;1.38;;;15.40;99.90;;;;;;5023367;28;20028;-84
2022/08/21 03:15:21;;;;;;;1.77;1.67;;;15.40;99.90;;;;;;5063411;28;20036;-85
2022/08/21 03:18:03;;;;;;;1.80;1.70;;;15.30;99.90;;;;;;5026186;28;20025;-83
2022/08/21 03:20:30;;;;;;;1.60;1.50;;;15.40;99.90;;;;;;5036676;28;20097;-85
2022/08/21 03:22:56;;;;;;;1.65;1.55;;;15.40;99.90;;;;;;5038959;28;20441;-84
2022/08/21 03:25:24;;;;;;;1.40;1.30;;;15.30;99.90;;;;;;5039227;28;20053;-84
2022/08/21 03:27:50;;;;;;;1.60;1.50;;;15.30;99.90;;;;;;5038762;28;20510;-84
2022/08/21 03:30:18;;;;;;;1.60;1.50;;;15.30;99.90;;;;;;5038483;28;20093;-84
2022/08/21 03:32:44;;;;;;;1.67;1.58;;;15.30;99.90;;;;;;5021161;28;20075;-85
2022/08/21 03:35:10;;;;;;;1.55;1.45;;;15.30;99.90;;;;;;5041847;22;20046;-81
2022/08/21 03:37:35;;;;;;;1.60;1.50;;;15.30;99.90;;;;;;5015177;28;20045;-81
2022/08/21 03:40:04;;;;;;;1.70;1.60;;;15.30;99.90;;;;;;5019540;28;20053;-82
2022/08/21 03:42:29;;;;;;;1.52;1.42;;;15.30;99.90;;;;;;5015233;28;20037;-82
2022/08/21 03:44:55;;;;;;;1.17;1.17;;;15.30;99.90;;;;;;4997248;28;20034;-82
2022/08/21 03:47:21;;;;;;;1.20;1.20;;;15.30;99.90;;;;;;5010227;28;20101;-82
2022/08/21 03:49:47;;;;;;;1.17;1.17;;;15.20;99.90;;;;;;4986143;28;20049;-82
2022/08/21 03:52:13;;;;;;;1.40;1.40;;;15.20;99.90;;;;;;4997259;28;20131;-82
2022/08/21 03:54:41;;;;;;;1.02;1.02;;;15.20;99.90;;;;;;5023294;28;20037;-84
2022/08/21 03:57:08;;;;;;;1.42;1.40;;;15.20;99.90;;;;;;5022729;28;20096;-82
2022/08/21 03:59:34;;;;;;;1.50;1.40;;;15.20;99.90;;;;;;5023190;28;20040;-82
2022/08/21 04:02:02;;;;;;;1.00;1.00;;;15.10;99.90;;;;;;5029873;28;20061;-82
2022/08/21 04:04:29;;;;;;;1.52;1.42;;;15.10;99.90;;;;;;5029260;28;20053;-82
2022/08/21 04:06:56;;;;;;;1.60;1.50;;;15.10;99.90;;;;;;5010533;28;20021;-81
2022/08/21 04:09:22;;;;;;;1.15;1.15;;;15.10;99.90;;;;;;5019347;28;20033;-82
2022/08/21 04:11:48;;;;;;;1.60;1.50;;;15.10;99.90;;;;;;4999401;28;20022;-81
2022/08/21 04:14:14;;;;;;;1.50;1.40;;;15.00;99.90;;;;;;5003311;28;20035;-82
2022/08/21 04:16:41;;;;;;;1.17;1.17;;;15.10;99.90;;;;;;5003646;28;20088;-82
2022/08/21 04:19:07;;;;;;;1.85;1.42;;;15.00;99.90;;;;;;4988172;28;20069;-82
2022/08/21 04:21:33;;;;;;;1.50;1.40;;;15.00;99.90;;;;;;5010144;28;20025;-82
2022/08/21 04:23:59;;;;;;;1.50;1.40;;;15.00;99.90;;;;;;5016984;28;20146;-82
2022/08/21 04:26:26;;;;;;;1.60;1.50;;;15.10;99.90;;;;;;5017027;28;20029;-81
2022/08/21 04:28:52;;;;;;;2.67;1.42;;;15.10;99.90;;;;;;5025796;28;20109;-82
2022/08/21 04:31:18;;;;;;;1.42;1.33;;;15.10;99.90;;;;;;5023229;28;20064;-82
2022/08/21 04:33:44;;;;;;;1.30;1.30;;;15.10;99.90;;;;;;5023275;28;20132;-81
2022/08/21 04:36:11;;;;;;;1.80;1.70;;;15.10;99.90;;;;;;5020056;28;20026;-80
2022/08/21 04:38:37;;;;;;;2.35;1.98;;;15.10;99.90;;;;;;5019681;28;20029;-80
2022/08/21 04:41:02;;;;;;;1.98;1.88;;;15.10;99.90;;;;;;5009722;28;20032;-82
2022/08/21 04:43:28;;;;;;;1.67;1.58;;;15.10;99.90;;;;;;5010974;28;20113;-80
2022/08/21 04:45:54;;;;;;;2.10;2.00;;;15.10;99.90;;;;;;5000910;28;20018;-78
2022/08/21 04:48:23;;;;;;;1.73;1.63;;;15.10;99.90;;;;;;5020520;28;20086;-81
2022/08/21 04:51:02;;;;;;;1.70;1.60;;;15.20;99.90;;;;;;5007588;28;20049;-79
2022/08/21 04:53:46;;;;;;;1.90;1.80;;;15.20;99.90;;;;;;5004999;28;20021;-80
2022/08/21 04:56:28;;;;;;;1.60;1.50;;;15.10;99.90;;;;;;5021391;28;20022;-79
2022/08/21 04:58:58;;;;;;;1.95;1.85;;;15.10;99.90;;;;;;5021158;28;20050;-80
2022/08/21 05:01:27;;;;;;;1.73;1.63;;;15.20;99.90;;;;;;5002853;28;20448;-80
2022/08/21 05:03:56;;;;;;;1.80;1.70;;;15.20;99.90;;;;;;5020846;28;20038;-79
2022/08/21 05:06:23;;;;;;;2.00;1.90;;;15.30;99.90;;;;;;4996259;28;20032;-80
2022/08/21 05:08:52;;;;;;;2.03;1.90;;;15.30;99.90;;;;;;5002379;28;20112;-81
2022/08/21 05:11:19;;;;;;;1.45;1.35;;;15.40;99.90;;;;;;5016673;28;20006;-81
2022/08/21 05:13:45;;;;;;;1.88;1.77;;;15.50;99.90;;;;;;5022898;28;20026;-81
2022/08/21 05:16:11;;;;;;;1.70;1.60;;;15.60;99.90;;;;;;5023307;28;20102;-80
2022/08/21 05:18:37;;;;;;;1.90;1.80;;;15.60;99.90;;;;;;5025886;28;20034;-81
2022/08/21 05:21:03;;;;;;;1.42;1.42;;;15.70;99.90;;;;;;5031921;28;20041;-78
2022/08/21 05:23:29;;;;;;;1.73;1.63;;;15.80;99.90;;;;;;5030036;28;20018;-80
2022/08/21 05:25:55;;;;;;;1.80;1.67;;;15.80;99.90;;;;;;5012877;28;20026;-78
2022/08/21 05:28:21;;;;;;;1.80;1.70;;;15.90;99.90;;;;;;5024905;28;20088;-80
2022/08/21 05:30:47;;;;;;;1.10;1.10;;;16.00;99.90;;;;;;5027566;28;20026;-80
2022/08/21 05:33:14;;;;;;;1.25;1.25;;;15.90;99.90;;;;;;5026145;28;20029;-83
2022/08/21 05:35:43;;;;;;;1.52;1.35;;;15.90;99.90;;;;;;4987239;28;1148845;-85
2022/08/21 05:38:09;;;;;;;1.80;1.70;;;16.00;99.90;;;;;;5002984;28;20030;-81
2022/08/21 05:40:35;;;;;;;1.63;1.55;;;16.00;99.90;;;;;;5008268;28;20060;-81
2022/08/21 05:43:01;;;;;;;1.90;1.80;;;16.00;99.90;;;;;;5015328;28;20078;-83
2022/08/21 05:45:30;;;;;;;1.95;1.85;;;16.00;99.90;;;;;;4994406;28;20026;-82
2022/08/21 05:47:56;;;;;;;1.98;1.88;;;16.10;99.90;;;;;;4998842;28;20041;-81
2022/08/21 05:50:22;;;;;;;1.70;1.60;;;16.10;99.90;;;;;;5016450;28;20030;-82
2022/08/21 05:52:47;;;;;;;2.58;2.03;;;16.10;99.90;;;;;;4999837;28;20138;-82
2022/08/21 05:55:13;;;;;;;2.03;1.92;;;16.20;99.90;;;;;;5016941;28;20050;-81
2022/08/21 05:57:41;;;;;;;2.42;1.92;;;16.20;99.90;;;;;;5000016;28;20045;-81
2022/08/21 06:00:10;;;;;;;2.30;2.20;;;16.20;99.90;;;;;;4999675;28;20037;-81
2022/08/21 06:02:36;;;;;;;2.38;2.28;;;16.30;99.90;;;;;;4999384;28;20034;-84
2022/08/21 06:05:01;;;;;;;2.50;2.30;;;16.30;99.90;;;;;;4997907;28;20097;-80
2022/08/21 06:07:28;;;;;;;2.90;2.30;;;16.40;99.90;;;;;;5013875;28;20358;-79
2022/08/21 06:09:54;;;;;;;5.95;3.10;;;16.50;99.90;;;;;;5027453;28;20037;-81
2022/08/21 06:12:20;;;;;;;2.88;2.67;;;16.50;99.90;;;;;;5034415;28;20030;-80
2022/08/21 06:14:45;;;;;;;3.00;2.33;;;16.60;99.90;;;;;;5018290;28;20037;-80
2022/08/21 06:17:13;;;;;;;2.47;2.28;;;16.70;99.90;;;;;;5020236;28;20025;-82
2022/08/21 06:19:39;;;;;;;3.95;2.17;;;16.70;99.90;;;;;;5032315;28;20010;-81
2022/08/21 06:22:04;;;;;;;2.25;2.10;;;16.80;99.90;;;;;;4999638;28;20094;-81
2022/08/21 06:24:31;;;;;;;2.65;2.13;;;16.90;99.90;;;;;;4996547;28;20065;-81
2022/08/21 06:26:56;;;;;;;3.85;2.40;;;17.00;99.90;;;;;;5015618;28;20094;-79
2022/08/21 06:29:23;;;;;;;2.10;2.00;;;17.30;99.90;;;;;;5011889;28;20247;-80
2022/08/21 06:31:51;;;;;;;2.40;2.03;;;19.60;99.90;;;;;;5010534;28;20077;-79
2022/08/21 06:34:17;;;;;;;1.40;1.30;;;22.90;99.90;;;;;;5028877;28;20053;-81
2022/08/21 06:36:43;;;;;;;0.90;0.90;;;;;;;;;;5033635;28;20041;-81
2022/08/21 06:39:09;;;;;;;1.20;1.10;;;26.90;99.90;;;;;;5013713;28;20379;-82
2022/08/21 06:41:35;;;;;;;0.88;0.77;;;27.90;98.60;;;;;;5030983;28;20030;-84
2022/08/21 06:44:00;;;;;;;0.80;0.80;;;28.60;95.90;;;;;;5022600;28;20045;-82
2022/08/21 06:46:28;;;;;;;0.90;0.90;;;28.90;94.80;;;;;;5005662;28;20018;-82
2022/08/21 06:48:58;;;;;;;1.00;1.00;;;27.20;90.20;;;;;;5008581;28;20041;-82
2022/08/21 06:51:25;;;;;;;1.85;1.63;;;24.90;92.70;;;;;;5007896;28;20040;-84
2022/08/21 06:53:51;;;;;;;1.90;1.80;;;23.20;94.20;;;;;;5007722;28;20115;-84
2022/08/21 06:56:17;;;;;;;2.03;1.70;;;21.70;95.60;;;;;;5007924;28;20076;-83
2022/08/21 06:58:43;;;;;;;2.40;1.73;;;20.50;99.90;;;;;;5025810;28;20519;-83
2022/08/21 07:01:09;;;;;;;3.05;1.88;;;19.70;99.90;;;;;;5009342;28;20088;-83
2022/08/21 07:03:41;;;;;;;2.63;2.10;;;19.10;99.90;;;;;;5007464;28;20089;-85
2022/08/21 07:06:08;;;;;;;4.60;1.88;;;18.80;99.90;;;;;;5024165;28;20030;-84
2022/08/21 07:08:35;;;;;;;4.88;3.30;;;18.60;99.90;;;;;;5006692;28;20026;-85
2022/08/21 07:11:03;;;;;;;3.22;2.17;;;18.40;99.90;;;;;;5020453;28;20093;-84
2022/08/21 07:13:28;;;;;;;2.05;1.70;;;18.30;99.90;;;;;;5005764;28;20042;-85
2022/08/21 07:15:54;;;;;;;2.67;2.47;;;18.30;99.90;;;;;;4998586;28;20045;-86
2022/08/21 07:18:20;;;;;;;3.95;2.50;;;18.30;99.90;;;;;;5007887;28;20038;-85
2022/08/21 07:20:46;;;;;;;4.13;2.90;;;18.30;99.90;;;;;;5028639;28;20022;-86
2022/08/21 07:23:27;;;;;;;6.13;2.55;;;18.40;99.90;;;;;;5010253;28;20030;-85
2022/08/21 07:25:53;;;;;;;1.92;1.83;;;18.40;99.90;;;;;;5027030;28;20021;-84
2022/08/21 07:28:19;;;;;;;6.13;3.88;;;18.40;99.90;;;;;;5010408;28;20104;-83
2022/08/21 07:30:46;;;;;;;5.43;3.50;;;18.50;99.90;;;;;;5025701;28;20041;-83
2022/08/21 07:33:12;;;;;;;7.18;3.80;;;18.60;99.90;;;;;;5024906;28;20443;-83
2022/08/21 07:35:38;;;;;;;4.32;3.75;;;18.70;99.90;;;;;;5014284;28;20045;-83
2022/08/21 07:38:04;;;;;;;4.10;3.53;;;18.70;99.90;;;;;;5025085;28;20099;-84
2022/08/21 07:40:30;;;;;;;3.50;3.20;;;18.90;99.90;;;;;;5021419;28;20480;-84
2022/08/21 07:42:55;;;;;;;3.53;3.20;;;18.90;99.90;;;;;;5013604;28;20034;-84
2022/08/21 07:45:29;;;;;;;4.22;2.90;;;19.00;99.90;;;;;;5015423;28;20045;-80
2022/08/21 07:47:55;;;;;;;4.10;3.15;;;19.10;99.90;;;;;;5025098;28;20058;-82
2022/08/21 07:50:21;;;;;;;5.72;3.10;;;19.20;99.90;;;;;;5025919;28;20120;-82
2022/08/21 07:52:47;;;;;;;2.58;2.30;;;19.30;99.90;;;;;;5010323;28;20030;-84
2022/08/21 07:55:16;;;;;;;5.55;2.70;;;19.50;99.90;;;;;;5008801;28;20034;-83
2022/08/21 07:57:41;;;;;;;2.83;2.63;;;19.70;99.10;;;;;;5007568;28;20030;-83
2022/08/21 08:00:11;;;;;;;3.45;2.63;;;19.80;98.70;;;;;;5015301;28;20037;-84
2022/08/21 08:02:36;;;;;;;4.65;3.17;;;20.00;94.80;;;;;;5028459;28;20040;-83
2022/08/21 08:05:04;;;;;;;3.15;2.85;;;20.10;96.70;;;;;;5027300;28;20022;-83
2022/08/21 08:07:30;;;;;;;4.63;2.58;;;20.20;96.90;;;;;;5026918;28;20026;-84
2022/08/21 08:09:56;;;;;;;2.88;2.45;;;20.40;97.10;;;;;;5030339;28;20068;-84
2022/08/21 08:12:21;;;;;;;3.08;2.70;;;20.60;94.70;;;;;;5028907;28;20092;-86
2022/08/21 08:14:47;;;;;;;4.63;2.70;;;20.80;92.20;;;;;;5028244;28;20576;-84
2022/08/21 08:17:13;;;;;;;2.60;2.40;;;20.90;91.50;;;;;;5027010;28;20033;-85
2022/08/21 08:19:39;;;;;;;3.25;2.33;;;21.00;91.70;;;;;;5035176;28;20097;-85
2022/08/21 08:22:19;;;;;;;4.80;3.15;;;21.30;90.00;;;;;;5033543;28;20014;-87
2022/08/21 08:24:45;;;;;;;3.55;3.20;;;21.40;87.00;;;;;;5026670;28;20040;-87
2022/08/21 08:27:11;;;;;;;3.15;2.70;;;21.40;86.30;;;;;;5027824;28;20025;-87
2022/08/21 08:29:37;;;;;;;3.00;2.70;;;21.50;86.30;;;;;;5027829;28;20049;-86
2022/08/21 08:32:06;;;;;;;3.78;2.92;;;21.70;84.50;;;;;;5032933;28;20026;-86
2022/08/21 08:34:33;;;;;;;2.53;2.33;;;21.70;83.00;;;;;;5032364;28;20177;-87
2022/08/21 08:36:59;;;;;;;7.15;2.85;;;21.80;83.30;;;;;;5012454;28;20037;-85
2022/08/21 08:39:26;;;;;;;4.22;2.55;;;22.00;82.70;;;;;;5011134;28;20023;-87
2022/08/21 08:42:03;;;;;;;2.40;2.20;;;22.00;82.70;;;;;;5027357;28;20193;-86
2022/08/21 08:44:30;;;;;;;3.33;2.30;;;22.10;83.50;;;;;;5034208;28;20038;-86
2022/08/21 08:46:57;;;;;;;2.83;2.42;;;22.30;82.60;;;;;;5030322;28;20024;-87
2022/08/21 08:49:29;;;;;;;5.43;3.65;;;22.50;81.30;;;;;;5029059;28;20464;-86
2022/08/21 08:52:07;;;;;;;4.32;2.50;;;22.70;79.10;;;;;;5014019;28;20041;-87
2022/08/21 08:54:57;;;;;;;2.90;2.70;;;22.70;78.80;;;;;;5008707;28;20038;-87
2022/08/21 08:57:24;;;;;;;2.95;2.75;;;22.70;79.30;;;;;;5027496;28;20022;-87
2022/08/21 08:59:54;;;;;;;3.38;2.40;;;22.80;78.00;;;;;;5028363;28;20025;-87
2022/08/21 09:02:22;;;;;;;2.42;2.22;;;22.90;77.40;;;;;;5029729;28;20022;-86
2022/08/21 09:04:50;;;;;;;4.28;3.10;;;23.00;78.00;;;;;;5017066;28;20010;-87
2022/08/21 09:07:30;;;;;;;4.07;2.50;;;23.00;76.40;;;;;;5014317;28;20034;-86
2022/08/21 09:10:11;;;;;;;3.33;2.50;;;23.10;78.20;;;;;;5016020;28;20033;-87
2022/08/21 09:12:52;;;;;;;2.92;2.10;;;23.20;77.00;;;;;;5037030;28;20089;-87
2022/08/21 09:15:27;;;;;;;3.13;2.65;;;23.40;76.70;;;;;;5030903;28;20026;-86
2022/08/21 09:18:11;;;;;;;3.20;2.75;;;23.70;74.60;;;;;;5010655;28;20086;-86
2022/08/21 09:20:56;;;;;;;3.35;2.47;;;23.80;72.50;;;;;;5016152;28;20018;-88
2022/08/21 09:23:43;;;;;;;2.83;2.17;;;23.80;72.90;;;;;;5014732;28;20082;-87
2022/08/21 09:26:23;;;;;;;4.22;2.85;;;23.90;74.00;;;;;;5014297;28;20037;-87
2022/08/21 09:28:53;;;;;;;2.83;2.30;;;24.00;72.30;;;;;;5012135;28;20037;-86
2022/08/21 09:31:25;;;;;;;2.50;1.95;;;24.00;73.20;;;;;;5009879;28;20022;-87
2022/08/21 09:33:59;;;;;;;2.42;2.20;;;24.20;74.00;;;;;;5012673;28;20041;-87
2022/08/21 09:36:31;;;;;;;2.35;2.13;;;24.50;72.40;;;;;;5025154;22;20045;-82
2022/08/21 09:38:57;;;;;;;3.45;2.35;;;24.60;71.30;;;;;;5007614;28;20086;-81
2022/08/21 09:41:28;;;;;;;2.65;2.05;;;24.70;70.60;;;;;;5009580;28;20030;-82
2022/08/21 09:43:54;;;;;;;4.70;1.95;;;25.00;71.10;;;;;;5009480;28;20456;-81
2022/08/21 09:46:22;;;;;;;3.10;2.60;;;25.40;69.50;;;;;;5003358;28;20090;-82
2022/08/21 09:48:51;;;;;;;3.70;2.17;;;25.70;67.80;;;;;;4989807;28;20022;-81
2022/08/21 09:51:21;;;;;;;1.85;1.75;;;25.70;67.20;;;;;;4990330;28;20073;-84
2022/08/21 09:54:05;;;;;;;4.57;2.65;;;25.70;67.40;;;;;;4988420;28;20042;-81
2022/08/21 09:59:28;;;;;;;2.13;1.92;;;25.00;68.10;;;;;;4989532;28;20094;-82
2022/08/21 10:01:54;;;;;;;3.72;2.30;;;24.60;70.00;;;;;;4986834;28;20019;-82
2022/08/21 10:04:28;;;;;;;2.53;2.30;;;24.30;72.10;;;;;;4985341;28;20033;-82
2022/08/21 10:06:54;;;;;;;3.13;2.40;;;24.00;73.20;;;;;;4982526;28;20038;-82
2022/08/21 10:09:20;;;;;;;3.50;2.15;;;23.60;74.30;;;;;;4982601;28;20081;-83
2022/08/21 10:11:53;;;;;;;2.50;2.17;;;23.60;75.30;;;;;;4981865;28;20536;-81
2022/08/21 10:14:30;;;;;;;2.35;1.98;;;24.10;75.00;;;;;;4980634;28;20027;-81
2022/08/21 10:17:33;;;;;;;4.22;2.30;;;24.90;73.00;;;;;;4980593;28;20413;-81
2022/08/21 10:20:19;;;;;;;2.47;1.70;;;25.80;68.90;;;;;;4978794;28;20094;-82
2022/08/21 10:30:14;;;;;;;6.07;2.53;;;25.60;66.00;;;;;;5003277;28;20208;-82
2022/08/21 10:33:13;;;;;;;2.20;1.85;;;25.10;68.20;;;;;;5045937;28;20349;-82
2022/08/21 10:36:12;;;;;;;2.53;1.92;;;24.70;69.00;;;;;;5036530;28;20025;-82
2022/08/21 10:38:43;;;;;;;2.97;2.72;;;24.40;70.80;;;;;;5054614;28;20029;-81
2022/08/21 10:41:30;;;;;;;2.38;2.17;;;24.10;72.00;;;;;;5040892;28;20024;-82
2022/08/21 10:44:05;;;;;;;1.88;1.70;;;23.80;72.10;;;;;;5063721;28;20387;-82
2022/08/21 10:46:33;;;;;;;3.38;2.60;;;23.50;73.60;;;;;;5059874;28;20013;-82
2022/08/21 10:49:21;;;;;;;4.15;2.30;;;23.30;74.90;;;;;;5041844;28;20028;-82
2022/08/21 10:52:25;;;;;;;3.65;1.90;;;23.20;75.60;;;;;;5060045;28;20028;-82
2022/08/21 10:55:23;;;;;;;2.55;2.33;;;23.10;76.20;;;;;;5062502;28;20680;-82
2022/08/21 10:58:09;;;;;;;1.90;1.80;;;23.40;76.60;;;;;;5065185;28;20045;-82
2022/08/21 11:00:48;;;;;;;2.17;2.00;;;24.40;75.40;;;;;;5064649;28;20033;-81
2022/08/21 11:03:33;;;;;;;1.90;1.80;;;25.20;72.60;;;;;;5064342;28;20029;-83
2022/08/21 11:06:10;;;;;;;2.35;2.10;;;25.80;71.30;;;;;;5063783;28;20040;-81
2022/08/21 11:08:43;;;;;;;2.10;1.90;;;25.70;69.10;;;;;;5042762;28;20141;-83
2022/08/21 11:11:17;;;;;;;2.92;2.22;;;25.30;69.10;;;;;;5047150;28;20045;-81
2022/08/21 11:13:47;;;;;;;2.17;2.08;;;24.90;68.50;;;;;;5068720;28;20171;-81
2022/08/21 11:16:25;;;;;;;2.85;1.80;;;24.70;68.20;;;;;;5056282;28;20035;-80
2022/08/21 11:19:13;;;;;;;2.13;1.70;;;24.60;69.20;;;;;;5063370;28;20055;-81
2022/08/21 11:22:01;;;;;;;1.80;1.70;;;24.50;68.30;;;;;;5064154;28;20033;-81
2022/08/21 11:24:49;;;;;;;2.28;2.10;;;24.70;69.30;;;;;;5061620;28;20036;-83
2022/08/21 11:27:23;;;;;;;3.28;2.33;;;24.70;69.00;;;;;;5068920;28;20040;-81
2022/08/21 11:29:55;;;;;;;2.50;2.30;;;24.70;70.50;;;;;;5066010;28;20032;-83
2022/08/21 11:32:48;;;;;;;2.55;2.35;;;24.30;71.80;;;;;;5063832;28;20063;-82
2022/08/21 11:35:35;;;;;;;4.03;2.92;;;23.80;73.60;;;;;;5049371;28;20025;-81
2022/08/21 11:38:11;;;;;;;2.08;1.98;;;23.60;75.20;;;;;;5063714;28;20139;-82
2022/08/21 11:41:18;;;;;;;3.78;2.20;;;23.60;76.60;;;;;;5048918;28;20101;-81
2022/08/21 11:43:44;;;;;;;2.33;2.13;;;24.00;74.70;;;;;;5049163;28;20029;-82
2022/08/21 11:46:25;;;;;;;4.43;1.70;;;24.10;73.90;;;;;;5067598;28;20029;-81
2022/08/21 11:49:00;;;;;;;2.55;2.35;;;24.60;71.70;;;;;;5069274;28;20037;-81
2022/08/21 11:51:35;;;;;;;2.28;2.13;;;25.10;69.80;;;;;;5070022;28;20032;-82
2022/08/21 11:54:08;;;;;;;2.65;1.70;;;25.60;68.20;;;;;;5069130;28;20032;-82
2022/08/21 11:56:38;;;;;;;2.50;2.15;;;26.10;64.30;;;;;;5068018;28;20479;-82
2022/08/21 11:59:32;;;;;;;1.75;1.65;;;25.90;63.50;;;;;;5053958;28;20075;-81
2022/08/21 12:01:58;;;;;;;2.05;1.95;;;25.60;65.80;;;;;;5053821;28;20064;-81
2022/08/21 12:04:31;;;;;;;2.00;1.90;;;25.20;63.60;;;;;;5062858;28;20029;-82
2022/08/21 12:07:30;;;;;;;2.03;1.92;;;25.00;64.00;;;;;;5065554;28;20025;-82
2022/08/21 12:09:57;;;;;;;2.28;2.08;;;24.90;62.70;;;;;;5071973;28;20041;-82
2022/08/21 12:12:30;;;;;;;1.98;1.88;;;25.10;57.00;;;;;;5072190;28;20017;-81
2022/08/21 12:15:19;;;;;;;5.80;1.73;;;24.90;59.60;;;;;;5070818;28;20043;-81
2022/08/21 12:18:22;;;;;;;2.58;2.13;;;24.60;60.80;;;;;;5040020;28;20051;-81
2022/08/21 12:21:05;;;;;;;1.98;1.85;;;24.40;61.40;;;;;;5016232;28;20025;-79
2022/08/21 12:23:48;;;;;;;1.77;1.67;;;24.60;62.90;;;;;;5053641;28;20077;-83
2022/08/21 12:26:19;;;;;;;2.10;1.85;;;25.40;58.80;;;;;;5053239;28;20028;-81
2022/08/21 12:28:45;;;;;;;;;;;26.30;54.10;;;;;;5071158;28;20037;-81
2022/08/21 12:31:25;;;;;;;3.47;2.05;;;26.80;54.50;;;;;;5071852;28;20007;-81
2022/08/21 12:33:57;;;;;;;3.05;2.00;;;27.10;54.80;;;;;;5075745;28;20033;-81
2022/08/21 12:36:27;;;;;;;1.83;1.52;;;27.20;51.20;;;;;;5054776;28;20021;-82
2022/08/21 12:39:00;;;;;;;1.80;1.40;;;27.40;51.60;;;;;;5066099;28;20028;-81
2022/08/21 12:41:54;;;;;;;2.42;1.80;;;27.80;51.30;;;;;;5050926;28;20021;-82
2022/08/21 12:44:43;;;;;;;2.58;2.00;;;28.20;50.50;;;;;;5038541;28;20025;-81
2022/08/21 12:47:35;;;;;;;3.72;1.80;;;28.20;48.70;;;;;;5071998;28;20025;-79
2022/08/21 12:50:04;;;;;;;2.08;1.65;;;28.50;49.20;;;;;;5055442;28;20051;-80
2022/08/21 12:52:40;;;;;;;2.13;1.92;;;28.90;48.80;;;;;;5072448;28;20037;-81
2022/08/21 12:55:12;;;;;;;3.85;2.20;;;29.20;49.00;;;;;;5074120;28;20021;-81
2022/08/21 12:57:40;;;;;;;1.67;1.58;;;29.00;49.00;;;;;;5070189;28;20032;-81
2022/08/21 13:00:13;;;;;;;2.30;2.08;;;28.70;49.70;;;;;;5069654;28;20063;-80
2022/08/21 13:02:46;;;;;;;2.30;2.10;;;28.30;49.70;;;;;;5050561;28;20017;-80
2022/08/21 13:05:25;;;;;;;2.28;1.83;;;27.40;51.80;;;;;;5067375;28;20025;-81
2022/08/21 13:07:51;;;;;;;3.75;2.30;;;26.70;52.80;;;;;;5045194;28;20036;-81
2022/08/21 13:10:27;;;;;;;2.60;1.70;;;26.00;54.80;;;;;;5068508;28;20027;-80
2022/08/21 13:12:59;;;;;;;2.50;1.90;;;25.60;56.10;;;;;;5067217;28;20033;-81
2022/08/21 13:15:28;;;;;;;3.75;1.70;;;25.50;57.10;;;;;;5067889;28;20048;-81
2022/08/21 13:18:01;;;;;;;2.50;2.30;;;25.40;57.70;;;;;;5067002;28;20028;-81
2022/08/21 13:20:30;;;;;;;2.08;1.92;;;25.30;58.20;;;;;;5067901;28;20108;-81
2022/08/21 13:22:57;;;;;;;1.98;1.88;;;25.20;57.90;;;;;;5065648;28;20020;-82
2022/08/21 13:25:28;;;;;;;1.75;1.65;;;25.20;58.50;;;;;;5065577;28;20024;-81
2022/08/21 13:28:10;;;;;;;3.90;2.30;;;25.30;59.30;;;;;;5065172;28;20025;-80
2022/08/21 13:30:44;;;;;;;2.30;2.10;;;25.40;58.70;;;;;;5048665;28;20060;-82
2022/08/21 13:33:13;;;;;;;1.77;1.67;;;25.50;58.20;;;;;;5069324;28;20036;-80
2022/08/21 13:35:57;;;;;;;2.67;2.00;;;25.60;57.70;;;;;;5063589;28;20108;-81
2022/08/21 13:38:30;;;;;;;2.33;2.10;;;25.60;57.40;;;;;;5054104;28;20080;-80
2022/08/21 13:41:01;;;;;;;4.43;2.10;;;25.90;56.00;;;;;;5065712;28;20036;-79
2022/08/21 13:43:32;;;;;;;1.73;1.63;;;26.30;54.90;;;;;;5067342;28;20021;-82
2022/08/21 13:45:59;;;;;;;2.10;1.90;;;26.10;55.80;;;;;;5050919;28;20040;-84
2022/08/21 13:48:29;;;;;;;2.55;2.35;;;25.80;56.90;;;;;;5069246;28;20086;-80